X  Fechar Dados meteorológicos de METAR da aviação     LBPD Plovdiv International Airport
Temperatura
12°C Temperatura
12°C Ponto de orvalho
100% Umidade



Vento
3 M/S
6 MPH
10 KM/H
5 NÓS



280°
O
Condições atuais

Névoa Névoa
Pressão 1005.76 (hPa) - 29.7 (inHg)
Visibilidade 3.1 (milha) - 5 (km)
Aeroporto
Código do aeroporto LBPD

Localização: Plovdiv International Airport
Distância: 14 (km)

Metar:
LBPD 240500Z AUTO 28005KT 5000 BR SCT013/// OVC015/// 12/12 Q1006 TEMPO 1500 BR BKN004

Hora: 24-04-2024 08:00 EEST